Página principal
METAR-TAF:

METAR-TAF

Aeroportos :

Aeroporto Internacional de Chongqing Jiangbei

Chongqing, China

latitude: 29-31N, longitude: 106-29E, altura: 351 m

Observação actual do tempo

O boletim foi feito há 58 minutos, às 04:00 UTC
Vento 4 kt de nor-nordeste, variando entre noroeste e este
Temperatura 21°C
Humidade 60%
Pressão 1014 hPa
Visibilidade 10 km ou mais
Poucas nuvensa uma altura de 2300 ft
Nuvens dispersasa uma altura de 3300 ft
Nuvens fragmentadasa uma altura de 5000 ft

METAR: ZUCK 230400Z 03002MPS 320V090 9999 FEW023 SCT033 BKN050 21/13 Q1014 NOSIG

Hora: 12:58 (04:58 UTC)

Previsão

O boletim foi feito há 9 horas e 50 minutos, às 19:08 UTC
Previsão válida de 23 às 00 UTC a 23 às 24 UTC
Vento 6 kt de su-sudeste
Visibilidade: 5000 m
Nuvens dispersasa uma altura de 2000 ft
Encobertoa uma altura de 4000 ft
neblina

TAF: ZUCK 221908Z 2300/2324 15003MPS 5000 BR SCT020 OVC040 TX23/2307Z TN16/2300Z

Observações e previsões do tempo de mais de 4000 aeroportos (mensagens METAR e TAF).

As estações disponíveis são os pontos amarelos e vermelhos sobre o mapa.

Mova o rato sobre o mapa para ver o nome da estação.

Depois clique no ponto para visualizar as observações e previsões meteorológicas.

Para alterar o mapa : clique nos botões verdes com uma cruz preta para aumentar o zoom; no botão verde com uma pitada de zoom; ou nas setas verdes para mapas adjacentes.


METAR-TAF: